Terminal Aerodrome Forecast
Issued by NWS Sioux Falls, SD

Home | Current Version | Previous Version | Graphics & Text | Print | Product List | Glossary Off
Versions: 1 2 3 4 5 6 7 8 9 10 11 12

000
FTUS43 KFSD 262343
TAFHON
TAF
KHON 262343Z 2700/2724 30008KT P6SM SKC
     FM270300 24004KT P6SM SCT150
     FM270800 25005KT P6SM VCSH OVC100
     FM271000 29005KT P6SM VCSH OVC050
     FM271800 29007KT P6SM SCT100
     FM272100 25007KT P6SM SCT100=

USA.gov is the U.S. government's official web portal to all federal, state and local government web resources and services.